Time;durP1;ratioP1;P1;durP2;ratioP2;P2;SDS_P1;SDS_P2;PMS_P1;PMS_P2;Temp;Humidity;BMP_temperature;BMP_pressure;BME280_temperature;BME280_humidity;BME280_pressure;Samples;Min_cycle;Max_cycle;Signal;HPM_P1;HPM_P2
2023/01/16 00:01:20;;;;;;;13.55;12.32;;;6.70;99.90;;;;;;5116822;28;20043;-74
2023/01/16 00:03:46;;;;;;;13.15;11.75;;;6.60;99.90;;;;;;5116643;28;20453;-74
2023/01/16 00:06:11;;;;;;;15.15;11.63;;;6.60;99.90;;;;;;5116546;28;20035;-74
2023/01/16 00:08:37;;;;;;;13.98;12.45;;;6.60;99.90;;;;;;5116901;28;20074;-74
2023/01/16 00:11:03;;;;;;;14.10;12.85;;;6.70;99.90;;;;;;5115522;28;20040;-74
2023/01/16 00:13:28;;;;;;;13.70;12.32;;;6.80;99.90;;;;;;5116919;28;20362;-74
2023/01/16 00:15:54;;;;;;;12.15;11.02;;;6.70;99.90;;;;;;5116843;28;20388;-74
2023/01/16 00:18:19;;;;;;;13.27;12.10;;;6.60;99.90;;;;;;5115520;28;20046;-74
2023/01/16 00:20:47;;;;;;;13.45;12.35;;;6.40;99.90;;;;;;5116482;28;20092;-74
2023/01/16 00:23:13;;;;;;;12.35;11.23;;;6.50;99.90;;;;;;5116725;28;20051;-74
2023/01/16 00:25:41;;;;;;;12.18;10.98;;;6.30;99.90;;;;;;5116745;28;20036;-74
2023/01/16 00:28:07;;;;;;;11.88;10.75;;;6.40;99.90;;;;;;5117786;28;20050;-74
2023/01/16 00:30:33;;;;;;;12.68;10.30;;;6.30;99.90;;;;;;5120445;28;20118;-74
2023/01/16 00:32:59;;;;;;;12.43;11.15;;;6.30;99.90;;;;;;5120079;28;20086;-74
2023/01/16 00:35:26;;;;;;;13.23;10.68;;;6.30;99.90;;;;;;5120300;28;20039;-74
2023/01/16 00:37:52;;;;;;;13.18;10.50;;;6.20;99.90;;;;;;5120288;28;20060;-74
2023/01/16 00:40:18;;;;;;;12.68;9.73;;;6.20;99.90;;;;;;5120152;28;20077;-74
2023/01/16 00:42:43;;;;;;;10.80;9.90;;;6.00;99.90;;;;;;5118477;28;20040;-74
2023/01/16 00:45:09;;;;;;;11.02;9.95;;;6.00;99.90;;;;;;5120110;28;20096;-74
2023/01/16 00:47:35;;;;;;;12.50;9.85;;;5.90;99.90;;;;;;5119774;28;20338;-74
2023/01/16 00:50:01;;;;;;;10.77;9.82;;;5.90;99.90;;;;;;5120046;28;20036;-74
2023/01/16 00:52:26;;;;;;;11.07;10.10;;;5.90;99.90;;;;;;5119702;28;20321;-74
2023/01/16 00:54:52;;;;;;;13.00;10.10;;;5.90;99.90;;;;;;5119925;28;20036;-74
2023/01/16 00:57:18;;;;;;;10.40;9.50;;;6.10;99.90;;;;;;5119855;28;20051;-74
2023/01/16 00:59:43;;;;;;;10.70;9.48;;;6.00;99.90;;;;;;5119874;28;20148;-74
2023/01/16 01:02:09;;;;;;;10.57;8.98;;;6.10;99.90;;;;;;5101434;28;20070;-74
2023/01/16 01:04:35;;;;;;;9.75;8.85;;;6.00;99.90;;;;;;5119468;28;20328;-74
2023/01/16 01:07:01;;;;;;;10.73;9.00;;;5.90;99.90;;;;;;5119698;28;20046;-74
2023/01/16 01:09:27;;;;;;;9.73;8.45;;;6.00;99.90;;;;;;5118690;28;20387;-74
2023/01/16 01:11:52;;;;;;;8.90;7.88;;;6.00;99.90;;;;;;5119218;28;20051;-74
2023/01/16 01:14:18;;;;;;;11.57;8.70;;;5.90;99.90;;;;;;5119568;28;20077;-74
2023/01/16 01:16:44;;;;;;;10.15;8.35;;;5.80;99.90;;;;;;5119540;28;20126;-74
2023/01/16 01:19:09;;;;;;;8.77;8.00;;;5.80;99.90;;;;;;5119440;28;20048;-74
2023/01/16 01:21:35;;;;;;;10.60;8.35;;;5.70;99.90;;;;;;5118958;28;20432;-74
2023/01/16 01:24:01;;;;;;;10.07;8.13;;;5.80;99.90;;;;;;5118645;28;20335;-74
2023/01/16 01:26:26;;;;;;;9.50;7.82;;;5.80;99.90;;;;;;5119362;28;20113;-74
2023/01/16 01:28:52;;;;;;;9.32;8.43;;;5.90;99.90;;;;;;5119249;28;20466;-75
2023/01/16 01:31:18;;;;;;;9.50;8.70;;;6.00;99.90;;;;;;5119244;28;20039;-74
2023/01/16 01:33:43;;;;;;;9.18;8.45;;;6.10;99.90;;;;;;5119223;28;20337;-74
2023/01/16 01:36:09;;;;;;;9.60;8.63;;;6.10;99.90;;;;;;5119151;28;20321;-74
2023/01/16 01:38:35;;;;;;;12.18;8.60;;;6.20;99.90;;;;;;5119112;27;20440;-74
2023/01/16 01:41:01;;;;;;;9.13;8.52;;;6.30;99.90;;;;;;5118490;28;20069;-74
2023/01/16 01:43:51;;;;;;;9.80;8.90;;;6.30;99.90;;;;;;5118959;28;20031;-74
2023/01/16 01:46:17;;;;;;;14.65;9.50;;;6.40;99.90;;;;;;5119061;28;20036;-74
2023/01/16 01:48:42;;;;;;;13.05;8.68;;;6.30;99.90;;;;;;5118891;28;20130;-74
2023/01/16 01:51:13;;;;;;;10.68;9.05;;;6.20;99.90;;;;;;5118869;28;20074;-74
2023/01/16 01:53:45;;;;;;;11.05;8.88;;;6.10;99.90;;;;;;5118655;28;20067;-74
2023/01/16 01:56:24;;;;;;;9.65;8.38;;;6.10;99.90;;;;;;5118774;28;20131;-74
2023/01/16 01:58:54;;;;;;;10.43;7.82;;;6.10;99.90;;;;;;5118771;28;20042;-74
2023/01/16 02:01:20;;;;;;;10.63;7.93;;;5.90;99.90;;;;;;5118565;28;20032;-74
2023/01/16 02:03:50;;;;;;;11.77;8.57;;;6.00;99.90;;;;;;5118567;28;20034;-74
2023/01/16 02:06:24;;;;;;;10.70;8.65;;;5.90;99.90;;;;;;5118323;27;20035;-74
2023/01/16 02:08:52;;;;;;;11.77;8.63;;;5.90;99.90;;;;;;5118245;28;20425;-74
2023/01/16 02:11:32;;;;;;;12.60;9.15;;;6.00;99.90;;;;;;5118056;28;20044;-74
2023/01/16 02:14:13;;;;;;;11.75;8.65;;;6.10;99.90;;;;;;5117452;28;20043;-74
2023/01/16 02:20:01;;;;;;;9.88;8.63;;;5.90;99.90;;;;;;5117465;28;20128;-74
2023/01/16 02:22:29;;;;;;;13.10;8.93;;;6.10;99.90;;;;;;5108685;28;20055;-74
2023/01/16 02:25:13;;;;;;;10.23;9.23;;;6.10;99.90;;;;;;5118196;28;20118;-74
2023/01/16 02:28:13;;;;;;;11.88;8.98;;;5.90;99.90;;;;;;5118182;28;20039;-74
2023/01/16 02:30:48;;;;;;;12.00;9.20;;;5.80;99.90;;;;;;5118113;28;20062;-74
2023/01/16 02:33:34;;;;;;;8.95;8.18;;;5.90;99.90;;;;;;5118065;28;20071;-74
2023/01/16 02:36:31;;;;;;;9.18;8.38;;;5.90;99.90;;;;;;5118045;28;20088;-74
2023/01/16 02:38:59;;;;;;;12.17;8.67;;;5.90;99.90;;;;;;5117647;27;20118;-74
2023/01/16 02:41:41;;;;;;;10.95;8.80;;;5.90;99.90;;;;;;5117445;28;20040;-74
2023/01/16 02:44:44;;;;;;;11.77;8.68;;;6.00;99.90;;;;;;5117936;28;20040;-74
2023/01/16 02:47:25;;;;;;;10.50;9.38;;;6.10;99.90;;;;;;5117784;28;20310;-74
2023/01/16 02:50:13;;;;;;;10.10;8.48;;;6.30;99.90;;;;;;5117789;28;20046;-74
2023/01/16 02:52:53;;;;;;;13.55;8.93;;;6.20;99.90;;;;;;5117621;28;20044;-74
2023/01/16 02:55:30;;;;;;;9.68;8.77;;;6.20;99.90;;;;;;5117708;28;20078;-74
2023/01/16 02:58:00;;;;;;;13.43;8.52;;;6.10;99.90;;;;;;5117592;28;20122;-74
2023/01/16 03:00:27;;;;;;;10.60;8.75;;;6.00;99.90;;;;;;5117179;28;20031;-74
2023/01/16 03:02:53;;;;;;;9.25;8.25;;;5.90;99.90;;;;;;5117545;28;20044;-74
2023/01/16 03:05:19;;;;;;;12.23;9.18;;;6.00;99.90;;;;;;5117209;28;20128;-74
2023/01/16 03:08:06;;;;;;;9.20;8.40;;;6.10;99.90;;;;;;5117510;28;20035;-74
2023/01/16 03:10:50;;;;;;;;;;;5.70;99.90;;;;;;5118032;28;20118;-74
2023/01/16 03:13:44;;;;;;;10.77;9.75;;;5.70;99.90;;;;;;5117089;28;20205;-75
2023/01/16 03:16:28;;;;;;;12.48;9.73;;;5.80;99.90;;;;;;5116374;28;20329;-74
2023/01/16 03:19:18;;;;;;;11.10;10.00;;;5.90;99.90;;;;;;5117390;28;20035;-75
2023/01/16 03:21:43;;;;;;;11.57;9.50;;;6.20;99.90;;;;;;5115957;28;20047;-74
2023/01/16 03:24:36;;;;;;;11.23;9.50;;;6.20;99.90;;;;;;5116328;28;20055;-74
2023/01/16 03:27:26;;;;;;;10.82;9.38;;;6.30;99.90;;;;;;5117326;28;20081;-74
2023/01/16 03:30:14;;;;;;;9.85;9.15;;;6.20;99.90;;;;;;5117271;28;20040;-74
2023/01/16 03:32:42;;;;;;;10.02;8.50;;;6.30;99.90;;;;;;5117279;28;20040;-74
2023/01/16 03:35:15;;;;;;;14.15;8.93;;;6.30;99.90;;;;;;5117226;28;20040;-74
2023/01/16 03:38:09;;;;;;;9.48;8.52;;;6.20;99.90;;;;;;5117035;28;20037;-74
2023/01/16 03:40:40;;;;;;;11.70;9.27;;;6.20;99.90;;;;;;5112436;28;20135;-74
2023/01/16 03:43:11;;;;;;;8.80;8.00;;;6.30;99.90;;;;;;5116555;28;20116;-74
2023/01/16 03:45:42;;;;;;;9.43;8.35;;;6.20;99.90;;;;;;5116928;28;20067;-74
2023/01/16 03:48:35;;;;;;;13.00;9.20;;;6.00;99.90;;;;;;5117318;28;20055;-74
2023/01/16 03:51:06;;;;;;;10.02;9.23;;;6.00;99.90;;;;;;5116924;28;20114;-74
2023/01/16 03:53:38;;;;;;;15.20;9.60;;;6.10;99.90;;;;;;5116706;28;20039;-74
2023/01/16 03:56:31;;;;;;;10.40;9.38;;;6.10;99.90;;;;;;5116763;28;20384;-74
2023/01/16 03:58:57;;;;;;;9.73;8.40;;;6.10;99.90;;;;;;5117033;28;20039;-74
2023/01/16 04:01:32;;;;;;;9.77;8.30;;;6.00;99.90;;;;;;5116602;28;20127;-74
2023/01/16 04:04:06;;;;;;;9.35;8.48;;;6.10;99.90;;;;;;5119598;28;20036;-74
2023/01/16 04:06:45;;;;;;;9.63;8.35;;;6.10;99.90;;;;;;5120983;28;20042;-74
2023/01/16 04:09:29;;;;;;;11.25;9.10;;;5.90;99.90;;;;;;5120583;28;20050;-74
2023/01/16 04:11:56;;;;;;;11.48;8.60;;;5.90;99.90;;;;;;5120529;28;20331;-74
2023/01/16 04:14:23;;;;;;;9.52;8.82;;;5.90;99.90;;;;;;5120747;28;20101;-74
2023/01/16 04:16:50;;;;;;;11.65;8.98;;;6.10;99.90;;;;;;5120727;28;20131;-74
2023/01/16 04:19:18;;;;;;;11.02;9.90;;;6.20;99.90;;;;;;5120393;28;20051;-74
2023/01/16 04:21:46;;;;;;;11.05;10.25;;;6.20;99.90;;;;;;5120088;28;20432;-74
2023/01/16 04:24:12;;;;;;;11.63;10.43;;;6.20;99.90;;;;;;5120620;28;20078;-74
2023/01/16 04:26:38;;;;;;;11.65;10.63;;;6.20;99.90;;;;;;5120493;28;20036;-74
2023/01/16 04:29:03;;;;;;;12.27;10.93;;;6.30;99.90;;;;;;5119558;28;20031;-74
2023/01/16 04:31:29;;;;;;;12.05;10.82;;;6.30;99.90;;;;;;5120441;28;20035;-74
2023/01/16 04:33:55;;;;;;;14.48;12.30;;;6.20;99.90;;;;;;5120397;28;20111;-74
2023/01/16 04:36:21;;;;;;;12.35;11.25;;;6.20;99.90;;;;;;5120004;28;20430;-74
2023/01/16 04:38:47;;;;;;;12.50;11.40;;;6.20;99.90;;;;;;5120071;28;20120;-74
2023/01/16 04:41:35;;;;;;;13.50;12.20;;;6.20;99.90;;;;;;5119444;28;20075;-74
2023/01/16 04:43:58;;;;;;;13.43;12.23;;;6.20;99.90;;;;;;5119838;28;20100;-74
2023/01/16 04:46:24;;;;;;;14.85;12.93;;;6.20;99.90;;;;;;5120116;28;20036;-74
2023/01/16 04:48:49;;;;;;;13.85;12.57;;;6.30;99.90;;;;;;5119002;28;20035;-75
2023/01/16 04:51:15;;;;;;;15.02;13.73;;;6.30;99.90;;;;;;5119761;28;20040;-74
2023/01/16 04:53:41;;;;;;;14.30;12.93;;;6.40;99.90;;;;;;5119979;28;20126;-74
2023/01/16 04:56:06;;;;;;;14.93;13.43;;;6.50;99.90;;;;;;5119941;28;20071;-74
2023/01/16 04:58:32;;;;;;;14.77;13.27;;;6.50;99.90;;;;;;5119577;28;20075;-74
2023/01/16 05:00:58;;;;;;;14.77;13.43;;;6.60;99.90;;;;;;5119485;28;20040;-74
2023/01/16 05:03:23;;;;;;;15.25;13.65;;;6.70;99.90;;;;;;5119816;28;20119;-74
2023/01/16 05:05:49;;;;;;;16.58;13.75;;;6.70;99.90;;;;;;5119742;28;20035;-74
2023/01/16 05:08:18;;;;;;;16.15;14.13;;;6.60;99.90;;;;;;5119755;28;20062;-74
2023/01/16 05:10:44;;;;;;;16.02;14.43;;;6.60;99.90;;;;;;5119626;28;20046;-74
2023/01/16 05:13:09;;;;;;;15.77;14.13;;;6.70;99.90;;;;;;5119254;28;20384;-74
2023/01/16 05:15:35;;;;;;;16.08;14.25;;;6.70;99.90;;;;;;5119276;28;20070;-74
2023/01/16 05:18:01;;;;;;;16.25;14.32;;;6.60;99.90;;;;;;5119536;28;20436;-74
2023/01/16 05:20:26;;;;;;;16.30;14.68;;;6.60;99.90;;;;;;5118893;28;20051;-74
2023/01/16 05:22:52;;;;;;;16.05;14.63;;;6.70;99.90;;;;;;5118192;28;20058;-74
2023/01/16 05:25:18;;;;;;;17.45;15.57;;;6.70;99.90;;;;;;5118181;28;20040;-74
2023/01/16 05:27:49;;;;;;;19.73;16.27;;;6.80;99.90;;;;;;5119390;28;20483;-74
2023/01/16 05:30:15;;;;;;;17.50;15.73;;;6.60;99.90;;;;;;5118334;28;20169;-74
2023/01/16 05:32:42;;;;;;;17.73;16.05;;;6.50;99.90;;;;;;5118213;28;20387;-74
2023/01/16 05:35:08;;;;;;;20.83;16.02;;;6.40;99.90;;;;;;5119201;28;20043;-75
2023/01/16 05:37:33;;;;;;;19.05;15.43;;;6.40;99.90;;;;;;5119403;28;20031;-74
2023/01/16 05:39:59;;;;;;;18.25;15.82;;;6.30;99.90;;;;;;5119059;28;20043;-74
2023/01/16 05:42:25;;;;;;;18.85;14.25;;;6.50;99.90;;;;;;5118252;28;20051;-75
2023/01/16 05:44:51;;;;;;;17.90;15.93;;;6.60;99.90;;;;;;5117733;28;20050;-74
2023/01/16 05:47:21;;;;;;;18.98;16.05;;;6.60;99.90;;;;;;5118998;28;20039;-74
2023/01/16 05:49:47;;;;;;;19.98;15.32;;;6.60;99.90;;;;;;5118934;28;20043;-74
2023/01/16 05:52:13;;;;;;;15.15;13.57;;;6.60;99.90;;;;;;5118914;28;20058;-74
2023/01/16 05:54:39;;;;;;;16.95;13.93;;;6.60;99.90;;;;;;5118532;28;20036;-74
2023/01/16 05:57:05;;;;;;;19.42;14.85;;;6.50;99.90;;;;;;5118828;28;20092;-74
2023/01/16 05:59:31;;;;;;;16.45;14.43;;;6.40;99.90;;;;;;5118745;28;20458;-74
2023/01/16 06:01:57;;;;;;;16.00;14.50;;;6.30;99.90;;;;;;5118669;28;20039;-74
2023/01/16 06:04:23;;;;;;;16.95;15.10;;;6.20;99.90;;;;;;5118644;28;20081;-74
2023/01/16 06:06:49;;;;;;;19.50;14.18;;;6.10;99.90;;;;;;5118741;28;20119;-75
2023/01/16 06:09:15;;;;;;;18.95;15.50;;;6.20;99.90;;;;;;5100506;28;20130;-74
2023/01/16 06:11:41;;;;;;;17.95;15.00;;;6.30;99.90;;;;;;5117772;28;20306;-75
2023/01/16 06:14:06;;;;;;;21.17;16.33;;;6.30;99.90;;;;;;5118168;28;20047;-74
2023/01/16 06:16:33;;;;;;;22.52;15.32;;;6.20;99.90;;;;;;5118334;28;20145;-74
2023/01/16 06:18:59;;;;;;;20.58;16.85;;;6.00;99.90;;;;;;5118349;28;20148;-75
2023/01/16 06:21:24;;;;;;;21.13;16.33;;;5.80;99.90;;;;;;5117855;28;20493;-75
2023/01/16 06:23:50;;;;;;;19.40;16.98;;;5.80;99.90;;;;;;5118270;28;20050;-74
2023/01/16 06:26:16;;;;;;;27.48;19.15;;;5.90;99.90;;;;;;5117468;27;20042;-74
2023/01/16 06:28:42;;;;;;;24.17;18.90;;;5.80;99.90;;;;;;5118187;28;20120;-74
2023/01/16 06:31:08;;;;;;;22.85;19.83;;;5.80;99.90;;;;;;5117772;28;20043;-74
2023/01/16 06:33:34;;;;;;;27.30;19.88;;;5.80;99.90;;;;;;5118071;28;20035;-74
2023/01/16 06:36:00;;;;;;;25.88;19.98;;;5.70;99.90;;;;;;5118033;28;20044;-74
2023/01/16 06:38:26;;;;;;;23.35;19.23;;;5.70;99.90;;;;;;5117619;28;20043;-75
2023/01/16 06:40:56;;;;;;;29.20;20.30;;;5.70;99.90;;;;;;5117576;28;20040;-74
2023/01/16 06:43:28;;;;;;;28.08;19.83;;;5.50;99.90;;;;;;5117495;28;20114;-74
2023/01/16 06:45:54;;;;;;;24.73;18.63;;;5.60;99.90;;;;;;5117873;28;20049;-75
2023/01/16 06:48:21;;;;;;;21.25;17.88;;;5.70;99.90;;;;;;5117799;28;20040;-74
2023/01/16 06:50:47;;;;;;;22.92;17.00;;;5.60;99.90;;;;;;5117740;28;20112;-74
2023/01/16 06:53:13;;;;;;;23.13;17.13;;;5.70;99.90;;;;;;5117679;28;20479;-74
2023/01/16 06:55:40;;;;;;;20.52;15.73;;;5.80;99.90;;;;;;5117651;28;20333;-74
2023/01/16 06:58:06;;;;;;;19.65;16.25;;;5.80;99.90;;;;;;5117685;28;20081;-74
2023/01/16 07:00:32;;;;;;;19.42;16.00;;;5.70;99.90;;;;;;5117520;28;20388;-74
2023/01/16 07:02:58;;;;;;;22.60;16.08;;;5.70;99.90;;;;;;5117606;28;20058;-74
2023/01/16 07:05:25;;;;;;;22.63;15.90;;;5.70;99.90;;;;;;5116562;28;20031;-74
2023/01/16 07:07:51;;;;;;;23.95;16.45;;;5.80;99.90;;;;;;5117528;28;20036;-74
2023/01/16 07:10:18;;;;;;;26.17;16.95;;;5.80;99.90;;;;;;5117430;28;20298;-74
2023/01/16 07:12:44;;;;;;;21.60;16.05;;;6.00;99.90;;;;;;5117043;28;20047;-74
2023/01/16 07:23:31;;;;;;;21.02;16.75;;;5.90;99.90;;;;;;5117335;28;20044;-74
2023/01/16 07:25:58;;;;;;;19.38;15.32;;;6.00;99.90;;;;;;5117345;28;20036;-74
2023/01/16 07:28:24;;;;;;;20.65;15.63;;;6.00;99.90;;;;;;5117248;28;20071;-76
2023/01/16 07:30:50;;;;;;;22.15;16.38;;;6.00;99.90;;;;;;5117253;28;20035;-74
2023/01/16 07:33:16;;;;;;;24.27;16.83;;;6.00;99.90;;;;;;5117246;28;20050;-74
2023/01/16 07:35:43;;;;;;;22.02;16.33;;;6.10;99.90;;;;;;5098904;28;20048;-74
2023/01/16 07:38:09;;;;;;;19.00;15.32;;;6.10;99.90;;;;;;5120023;28;20044;-74
2023/01/16 07:40:34;;;;;;;22.75;16.55;;;6.00;99.90;;;;;;5121329;28;20047;-74
2023/01/16 07:43:00;;;;;;;20.85;17.85;;;5.90;99.90;;;;;;5119598;28;20050;-74
2023/01/16 07:45:26;;;;;;;19.92;17.25;;;5.80;99.90;;;;;;5121323;28;20039;-74
2023/01/16 07:47:51;;;;;;;19.95;17.90;;;5.70;99.90;;;;;;5121039;28;20356;-74
2023/01/16 07:50:17;;;;;;;20.42;15.07;;;5.80;99.90;;;;;;5120949;28;20455;-74
2023/01/16 07:52:44;;;;;;;22.33;15.80;;;5.60;99.90;;;;;;5121235;28;20028;-74
2023/01/16 07:55:10;;;;;;;25.83;17.30;;;5.50;99.90;;;;;;5120878;27;20077;-74
2023/01/16 07:57:37;;;;;;;19.27;16.55;;;5.60;99.90;;;;;;5121035;27;20380;-74
2023/01/16 08:00:04;;;;;;;22.60;17.08;;;5.60;99.90;;;;;;5121053;28;20069;-74
2023/01/16 08:02:30;;;;;;;21.83;17.50;;;5.60;99.90;;;;;;5120678;28;20040;-74
2023/01/16 08:04:55;;;;;;;19.50;16.45;;;5.60;99.90;;;;;;5120919;28;20035;-74
2023/01/16 08:07:21;;;;;;;21.42;16.90;;;5.60;99.90;;;;;;5120929;28;20031;-69
2023/01/16 08:09:47;;;;;;;20.38;17.85;;;5.70;99.90;;;;;;5120594;28;20050;-69
2023/01/16 08:12:12;;;;;;;22.70;17.80;;;5.70;99.90;;;;;;5118908;28;20047;-69
2023/01/16 08:14:39;;;;;;;18.92;16.90;;;5.70;99.90;;;;;;5119454;28;20047;-69
2023/01/16 08:17:05;;;;;;;18.15;16.25;;;5.80;99.90;;;;;;5120567;28;20044;-71
2023/01/16 08:19:30;;;;;;;17.83;15.93;;;5.80;99.90;;;;;;5120481;28;20036;-72
2023/01/16 08:21:56;;;;;;;26.20;16.20;;;5.80;99.90;;;;;;5120019;28;20047;-69
2023/01/16 08:24:24;;;;;;;19.90;15.55;;;5.80;99.90;;;;;;5120408;28;20047;-69
2023/01/16 08:26:51;;;;;;;18.35;14.45;;;5.80;99.90;;;;;;5120358;28;20118;-69
2023/01/16 08:29:17;;;;;;;18.13;15.77;;;5.80;99.90;;;;;;5119101;28;20047;-69
2023/01/16 08:31:43;;;;;;;17.00;14.68;;;5.70;99.90;;;;;;5120258;28;20040;-69
2023/01/16 08:34:09;;;;;;;17.48;15.68;;;5.70;99.90;;;;;;5119906;28;20043;-69
2023/01/16 08:36:35;;;;;;;18.10;15.35;;;5.80;99.90;;;;;;5119806;28;20074;-69
2023/01/16 08:39:00;;;;;;;17.45;15.07;;;5.70;99.90;;;;;;5118891;28;20098;-70
2023/01/16 08:52:33;;;;;;;19.40;15.87;;;5.70;99.90;;;;;;5099804;28;20046;-68
2023/01/16 08:55:00;;;;;;;19.95;16.50;;;5.80;99.90;;;;;;5099133;28;20054;-69
2023/01/16 08:57:27;;;;;;;19.17;16.05;;;5.80;99.90;;;;;;5081474;28;20119;-68
2023/01/16 08:59:54;;;;;;;19.30;16.38;;;5.80;99.90;;;;;;5099569;28;20036;-68
2023/01/16 09:02:20;;;;;;;19.70;17.40;;;6.00;99.90;;;;;;5098572;28;20474;-68
2023/01/16 09:04:47;;;;;;;18.80;16.67;;;6.00;99.90;;;;;;5099319;28;20093;-68
2023/01/16 09:07:13;;;;;;;20.05;16.02;;;6.10;99.90;;;;;;5099393;28;20085;-68
2023/01/16 09:09:40;;;;;;;18.60;15.90;;;6.10;99.90;;;;;;5099425;28;20060;-68
2023/01/16 09:14:56;;;;;;;17.05;15.02;;;6.10;99.90;;;;;;5099357;28;20097;-68
2023/01/16 09:17:23;;;;;;;19.70;16.38;;;5.90;99.90;;;;;;5099392;28;20027;-68
2023/01/16 09:19:48;;;;;;;18.42;16.23;;;5.90;99.90;;;;;;5099209;28;20351;-68
2023/01/16 09:22:14;;;;;;;21.20;17.52;;;6.00;99.90;;;;;;5097521;28;20070;-71
2023/01/16 09:24:40;;;;;;;18.33;15.40;;;6.00;99.90;;;;;;5102172;28;20035;-74
2023/01/16 09:27:06;;;;;;;17.15;15.57;;;6.00;99.90;;;;;;5110632;28;20077;-71
2023/01/16 09:29:31;;;;;;;19.65;17.65;;;6.00;99.90;;;;;;5098454;28;20071;-71
2023/01/16 09:31:58;;;;;;;20.83;17.13;;;6.10;99.90;;;;;;5108109;28;20047;-70
2023/01/16 09:34:24;;;;;;;18.15;16.05;;;6.10;99.90;;;;;;5118783;28;20437;-70
2023/01/16 09:36:50;;;;;;;20.88;15.05;;;6.00;99.90;;;;;;5119021;28;20071;-68
2023/01/16 09:39:16;;;;;;;16.85;14.48;;;6.10;99.90;;;;;;5118108;28;20111;-69
2023/01/16 09:45:07;;;;;;;16.70;13.32;;;6.30;99.90;;;;;;5100463;27;20058;-69
2023/01/16 09:47:34;;;;;;;15.40;14.10;;;6.20;99.90;;;;;;5098326;28;20039;-70
2023/01/16 09:50:23;;;;;;;15.02;13.40;;;6.30;99.90;;;;;;5098365;28;20032;-74
2023/01/16 09:59:11;;;;;;;14.45;13.02;;;6.30;99.90;;;;;;5098222;28;20044;-69
2023/01/16 10:01:42;;;;;;;13.98;12.68;;;6.20;99.90;;;;;;5097058;28;20079;-69
2023/01/16 10:04:20;;;;;;;14.57;13.25;;;6.20;99.90;;;;;;5097814;28;20043;-68
2023/01/16 10:07:18;;;;;;;14.85;13.30;;;6.20;99.90;;;;;;5097937;28;20040;-68
2023/01/16 10:10:06;;;;;;;14.93;13.57;;;6.30;99.90;;;;;;5098060;28;20039;-68
2023/01/16 10:12:46;;;;;;;15.18;13.70;;;6.20;99.90;;;;;;5097578;28;20032;-68
2023/01/16 10:15:31;;;;;;;15.18;13.75;;;6.00;99.90;;;;;;5117699;28;20035;-69
2023/01/16 10:18:09;;;;;;;16.08;14.32;;;6.00;99.90;;;;;;5117822;28;20079;-68
2023/01/16 10:20:47;;;;;;;15.00;13.65;;;6.10;99.90;;;;;;5116482;28;20052;-68
2023/01/16 10:23:50;;;;;;;14.18;13.13;;;6.10;99.90;;;;;;5118140;28;20377;-68
2023/01/16 10:26:28;;;;;;;15.60;14.23;;;6.10;99.90;;;;;;5117740;28;20048;-68
2023/01/16 10:29:35;;;;;;;16.88;15.50;;;5.90;99.90;;;;;;5117806;28;20114;-68
2023/01/16 10:32:24;;;;;;;16.98;15.52;;;5.80;99.90;;;;;;5093241;28;20083;-68
2023/01/16 10:35:05;;;;;;;16.77;15.55;;;5.90;99.90;;;;;;5098033;28;20047;-68
2023/01/16 10:37:32;;;;;;;16.50;14.85;;;5.90;99.90;;;;;;5097435;28;20035;-68
2023/01/16 10:40:24;;;;;;;17.13;15.65;;;5.80;99.90;;;;;;5097448;28;20325;-68
2023/01/16 10:51:17;;;;;;;17.17;15.85;;;6.00;99.90;;;;;;5096978;28;20467;-68
2023/01/16 10:53:43;;;;;;;18.20;16.75;;;6.00;99.90;;;;;;5097388;28;20043;-68
2023/01/16 10:56:09;;;;;;;19.13;17.17;;;6.10;99.90;;;;;;5097362;28;20054;-68
2023/01/16 10:58:39;;;;;;;18.60;16.75;;;6.10;99.90;;;;;;5097040;28;20040;-69
2023/01/16 11:01:13;;;;;;;20.05;18.38;;;6.00;99.90;;;;;;5097203;28;20040;-68
2023/01/16 11:03:55;;;;;;;17.55;16.35;;;6.10;99.90;;;;;;5097270;28;20044;-68
2023/01/16 11:06:21;;;;;;;16.25;14.98;;;5.90;99.90;;;;;;5097155;28;20068;-68
2023/01/16 11:08:51;;;;;;;16.13;14.80;;;5.70;99.90;;;;;;5097131;28;20036;-68
2023/01/16 11:20:20;;;;;;;14.45;13.45;;;5.40;99.90;;;;;;5096686;28;20055;-67
2023/01/16 11:23:19;;;;;;;14.50;13.40;;;5.40;99.90;;;;;;5097259;28;20085;-68
2023/01/16 11:25:46;;;;;;;14.75;13.85;;;5.30;99.90;;;;;;5092115;28;20101;-68
2023/01/16 11:28:34;;;;;;;13.27;12.25;;;5.40;99.90;;;;;;5096609;28;20325;-68
2023/01/16 11:31:05;;;;;;;14.02;13.00;;;5.30;99.90;;;;;;5097023;28;20059;-70
2023/01/16 11:33:38;;;;;;;14.07;13.07;;;5.30;99.90;;;;;;5096555;28;20440;-68
2023/01/16 11:36:04;;;;;;;13.82;12.88;;;5.40;99.90;;;;;;5096654;28;20036;-68
2023/01/16 11:38:35;;;;;;;13.60;12.70;;;5.30;99.90;;;;;;5108672;28;20454;-70
2023/01/16 11:41:03;;;;;;;14.52;13.50;;;5.40;99.90;;;;;;5113652;28;20054;-69
2023/01/16 11:46:38;;;;;;;14.32;13.45;;;5.40;99.90;;;;;;5114424;28;20050;-69
2023/01/16 11:49:19;;;;;;;15.20;14.20;;;5.50;99.90;;;;;;5096788;28;20036;-69
2023/01/16 11:51:51;;;;;;;16.35;15.07;;;5.50;99.90;;;;;;5101905;28;20042;-70
2023/01/16 11:54:21;;;;;;;14.55;13.60;;;5.40;99.90;;;;;;5110519;28;20320;-69
2023/01/16 11:57:18;;;;;;;14.77;13.77;;;5.40;99.90;;;;;;5102967;28;20052;-69
2023/01/16 12:00:00;;;;;;;15.18;14.07;;;5.50;99.90;;;;;;5096681;28;20056;-69
2023/01/16 12:03:03;;;;;;;13.25;12.45;;;5.40;99.90;;;;;;5100289;28;20051;-70
2023/01/16 12:06:01;;;;;;;13.70;12.82;;;5.40;99.90;;;;;;5111122;28;20040;-69
2023/01/16 12:08:55;;;;;;;14.50;13.32;;;5.30;99.90;;;;;;5116982;28;20105;-69
2023/01/16 12:11:36;;;;;;;13.30;12.50;;;5.30;99.90;;;;;;5116925;28;20044;-70
2023/01/16 12:14:26;;;;;;;14.93;13.88;;;5.30;99.90;;;;;;5115828;28;20088;-69
2023/01/16 12:17:10;;;;;;;14.93;13.90;;;5.40;99.90;;;;;;5116922;28;20046;-69
2023/01/16 12:19:57;;;;;;;14.15;13.35;;;5.50;99.90;;;;;;5116522;28;20417;-69
2023/01/16 12:22:48;;;;;;;15.07;14.15;;;5.50;99.90;;;;;;5116311;28;20081;-72
2023/01/16 12:25:22;;;;;;;16.10;15.23;;;5.40;99.90;;;;;;5117489;28;20039;-71
2023/01/16 12:27:56;;;;;;;15.10;13.98;;;5.50;99.90;;;;;;5120313;28;20429;-70
2023/01/16 12:30:56;;;;;;;16.15;14.75;;;5.40;99.90;;;;;;5120442;28;20043;-70
2023/01/16 12:33:38;;;;;;;15.68;14.50;;;5.40;99.90;;;;;;5118315;28;20329;-70
2023/01/16 12:36:23;;;;;;;16.20;15.10;;;5.30;99.90;;;;;;5116307;28;20341;-70
2023/01/16 12:39:02;;;;;;;15.13;14.13;;;5.40;99.90;;;;;;5120054;27;20040;-69
2023/01/16 12:44:47;;;;;;;16.50;15.50;;;5.70;99.90;;;;;;5120002;27;20164;-70
2023/01/16 12:47:41;;;;;;;16.63;15.45;;;5.70;99.90;;;;;;5120422;28;20158;-69
2023/01/16 12:50:53;;;;;;;16.90;15.80;;;5.80;99.90;;;;;;5120166;28;20036;-70
2023/01/16 12:53:40;;;;;;;16.45;15.40;;;5.90;99.90;;;;;;5089679;28;20047;-68
2023/01/16 12:56:48;;;;;;;17.65;16.50;;;5.90;99.90;;;;;;5098595;28;20334;-67
2023/01/16 12:59:23;;;;;;;17.67;16.67;;;6.00;99.90;;;;;;5099640;28;20063;-67
2023/01/16 13:01:55;;;;;;;17.88;16.73;;;6.00;99.90;;;;;;5110063;28;20051;-68
2023/01/16 13:04:33;;;;;;;18.10;16.55;;;5.90;99.90;;;;;;5119378;28;20031;-68
2023/01/16 13:06:59;;;;;;;17.48;16.08;;;6.00;99.90;;;;;;5119438;28;20088;-70
2023/01/16 13:15:37;;;;;;;17.48;16.48;;;6.00;99.90;;;;;;5119669;28;20051;-69
2023/01/16 13:18:19;;;;;;;19.52;18.13;;;6.10;99.90;;;;;;5119605;27;20413;-69
2023/01/16 13:20:53;;;;;;;18.80;17.30;;;6.00;99.90;;;;;;5119162;28;20398;-69
2023/01/16 13:23:22;;;;;;;18.63;17.35;;;6.00;99.90;;;;;;5119565;28;20043;-69
2023/01/16 13:25:56;;;;;;;18.38;17.17;;;6.10;99.90;;;;;;5119433;28;20098;-69
2023/01/16 13:28:37;;;;;;;18.42;17.02;;;5.90;99.90;;;;;;5119476;28;20036;-71
2023/01/16 13:31:11;;;;;;;20.08;18.67;;;5.90;99.90;;;;;;5119286;27;20110;-70
2023/01/16 13:33:42;;;;;;;18.60;17.38;;;6.00;99.90;;;;;;5119372;27;20072;-71
2023/01/16 13:36:50;;;;;;;20.65;19.17;;;5.90;99.90;;;;;;5119074;28;20046;-71
2023/01/16 13:39:35;;;;;;;20.38;18.85;;;6.10;99.90;;;;;;5119332;28;20046;-71
2023/01/16 13:42:03;;;;;;;20.75;18.98;;;6.10;99.90;;;;;;5118739;28;20332;-71
2023/01/16 13:47:25;;;;;;;20.20;18.80;;;6.30;99.90;;;;;;5119040;28;20046;-71
2023/01/16 13:50:14;;;;;;;19.10;17.67;;;6.10;99.90;;;;;;5119045;28;20306;-70
2023/01/16 13:52:42;;;;;;;19.17;17.90;;;6.10;99.90;;;;;;5111029;28;20050;-71
2023/01/16 13:55:24;;;;;;;18.20;16.75;;;6.20;99.90;;;;;;5118862;28;20031;-70
2023/01/16 13:57:49;;;;;;;18.85;17.60;;;6.00;99.90;;;;;;5118794;28;20039;-70
2023/01/16 14:00:19;;;;;;;18.40;17.17;;;5.80;99.90;;;;;;5118510;28;20118;-70
2023/01/16 14:02:59;;;;;;;19.02;17.83;;;6.00;99.90;;;;;;5100629;28;20321;-69
2023/01/16 14:05:37;;;;;;;19.35;17.98;;;6.00;99.90;;;;;;5118737;28;20088;-69
2023/01/16 14:11:15;;;;;;;18.60;17.15;;;5.90;99.90;;;;;;5118610;28;20096;-69
2023/01/16 14:13:41;;;;;;;18.70;17.35;;;5.90;99.90;;;;;;5117998;28;20039;-69
2023/01/16 14:16:35;;;;;;;19.75;18.27;;;5.90;99.90;;;;;;5118485;28;20035;-68